F/V Spered Breizh — FIHY — position and weather

sailwx.info

Track history (hours):
 
Tides and Currents Weather Stations Pressure Air Temp Water Temp Dewpoint Dewpoint Depression Visibility Wind Speed Wind Dir Waves Ship Positions

F/V Spered Breizh

Last reported at 2018-Jan-18 08:53 UTC. Time now 2018-Jan-18 10:19 UTC.
Position N 47°49' W 004°23'.

Length 17 m.

MMSI: 228037700.

Date/timePositionNaut miles runAvg speedWind from/ knotsBaromVisibWave heightAir tempDewpointWater temp
2018-Jan-18 08:53N 47°49' W 004°23'0 0.0
2018-Jan-18 07:53N 47°49' W 004°23'0 0.0
2018-Jan-18 06:53N 47°49' W 004°23'0 0.0
2018-Jan-18 05:53N 47°49' W 004°23'0 0.0
2018-Jan-18 04:53N 47°49' W 004°23'0 0.0
2018-Jan-18 03:53N 47°49' W 004°23'0 0.0
2018-Jan-18 01:53N 47°49' W 004°23'0 0.0
2018-Jan-18 00:53N 47°49' W 004°23'0 0.0
2018-Jan-17 23:53N 47°49' W 004°23'  
2018-Jan-12 03:36N 47°46' W 004°20'110.2
2018-Jan-12 03:31N 47°45' W 004°18'610.1
2018-Jan-12 02:57N 47°43' W 004°11'4 8.6
2018-Jan-12 02:30N 47°41' W 004°06'5 8.9
2018-Jan-12 01:54N 47°44' W 004°12'15 2.8
2018-Jan-11 20:33N 47°52' W 004°31'2 9.9
2018-Jan-11 20:19N 47°54' W 004°33'3 9.7
2018-Jan-11 20:00N 47°56' W 004°36'5 9.4
2018-Jan-11 19:30N 47°60' W 004°40'0 0.6
2018-Jan-11 19:01N 47°60' W 004°40'1 1.3
2018-Jan-11 18:29N 47°60' W 004°39'1 2.9
2018-Jan-11 18:00N 47°59' W 004°37'13 8.8
2018-Jan-11 16:33N 47°50' W 004°25'1 0.2
2018-Jan-11 09:58N 47°49' W 004°23'0 0.0
2018-Jan-11 08:58N 47°49' W 004°23'0 0.0
2018-Jan-10 14:59N 47°49' W 004°23'0 0.0
2018-Jan-10 13:59N 47°49' W 004°23'2 0.2
2018-Jan-10 05:35N 47°50' W 004°25'1 9.7
2018-Jan-10 05:28N 47°51' W 004°25'5 9.7
2018-Jan-10 04:58N 47°56' W 004°28'3 6.4
2018-Jan-10 04:28N 47°59' W 004°30'0 0.2
2018-Jan-10 03:52N 47°59' W 004°30'2 5.0
2018-Jan-10 03:25N 47°59' W 004°33'4 8.5
2018-Jan-10 02:59N 47°60' W 004°39'0 0.2
2018-Jan-10 02:30N 47°60' W 004°39'0 0.4
2018-Jan-10 01:56N 47°60' W 004°39'2 3.8
2018-Jan-10 01:30N 47°60' W 004°37'1 1.3
2018-Jan-10 00:57N 47°60' W 004°38'9 8.8
2018-Jan-09 23:54N 47°55' W 004°25'4 8.9
2018-Jan-09 23:26N 47°51' W 004°24'2 1.5
2018-Jan-09 21:48N 47°49' W 004°23'1 0.1
2018-Jan-09 00:48N 47°49' W 004°25'1010.1
2018-Jan-08 23:51N 47°57' W 004°33'410.2
2018-Jan-08 23:30N 47°59' W 004°37'1 2.2
2018-Jan-08 23:00N 47°60' W 004°39'0 0.5
2018-Jan-08 22:31N 47°60' W 004°38'0 0.4
2018-Jan-08 22:00N 47°60' W 004°38'0 0.5
2018-Jan-08 21:29N 47°60' W 004°39'4 9.0
2018-Jan-08 21:00N 47°58' W 004°45'5 9.8
2018-Jan-08 20:30N 47°59' W 004°52'5 9.6
2018-Jan-08 19:57N 47°60' W 004°60'1 3.1
2018-Jan-08 19:30N 47°59' W 005°02'1 1.9
2018-Jan-08 19:00N 47°58' W 005°01'2 4.6
2018-Jan-08 18:30N 48°00' W 004°59'4 8.1
2018-Jan-08 18:00N 48°01' W 004°53'5 9.3
2018-Jan-08 17:30N 47°58' W 004°48'4 8.6
2018-Jan-08 17:00N 47°60' W 004°42'17 7.6
2018-Jan-08 14:48N 47°49' W 004°23'0 0.0
2018-Jan-08 09:58N 47°49' W 004°23'  
Track history (hours):
 
Tides and Currents Weather Stations Pressure Air Temp Water Temp Dewpoint Dewpoint Depression Visibility Wind Speed Wind Dir Waves Ship Positions

F/V Spered Breizh

Last reported at 2018-Jan-18 08:53 UTC. Time now 2018-Jan-18 10:19 UTC.
Position N 47°49' W 004°23'.

Length 17 m.

MMSI: 228037700.

Date/timePositionNaut miles runAvg speedWind from/ knotsBaromVisibWave heightAir tempDewpointWater temp
2018-Jan-18 08:53N 47°49' W 004°23'0 0.0
2018-Jan-18 07:53N 47°49' W 004°23'0 0.0
2018-Jan-18 06:53N 47°49' W 004°23'0 0.0
2018-Jan-18 05:53N 47°49' W 004°23'0 0.0
2018-Jan-18 04:53N 47°49' W 004°23'0 0.0
2018-Jan-18 03:53N 47°49' W 004°23'0 0.0
2018-Jan-18 01:53N 47°49' W 004°23'0 0.0
2018-Jan-18 00:53N 47°49' W 004°23'0 0.0
2018-Jan-17 23:53N 47°49' W 004°23'  
2018-Jan-12 03:36N 47°46' W 004°20'110.2
2018-Jan-12 03:31N 47°45' W 004°18'610.1
2018-Jan-12 02:57N 47°43' W 004°11'4 8.6
2018-Jan-12 02:30N 47°41' W 004°06'5 8.9
2018-Jan-12 01:54N 47°44' W 004°12'15 2.8
2018-Jan-11 20:33N 47°52' W 004°31'2 9.9
2018-Jan-11 20:19N 47°54' W 004°33'3 9.7
2018-Jan-11 20:00N 47°56' W 004°36'5 9.4
2018-Jan-11 19:30N 47°60' W 004°40'0 0.6
2018-Jan-11 19:01N 47°60' W 004°40'1 1.3
2018-Jan-11 18:29N 47°60' W 004°39'1 2.9
2018-Jan-11 18:00N 47°59' W 004°37'13 8.8
2018-Jan-11 16:33N 47°50' W 004°25'1 0.2
2018-Jan-11 09:58N 47°49' W 004°23'0 0.0
2018-Jan-11 08:58N 47°49' W 004°23'0 0.0
2018-Jan-10 14:59N 47°49' W 004°23'0 0.0
2018-Jan-10 13:59N 47°49' W 004°23'2 0.2
2018-Jan-10 05:35N 47°50' W 004°25'1 9.7
2018-Jan-10 05:28N 47°51' W 004°25'5 9.7
2018-Jan-10 04:58N 47°56' W 004°28'3 6.4
2018-Jan-10 04:28N 47°59' W 004°30'0 0.2
2018-Jan-10 03:52N 47°59' W 004°30'2 5.0
2018-Jan-10 03:25N 47°59' W 004°33'4 8.5
2018-Jan-10 02:59N 47°60' W 004°39'0 0.2
2018-Jan-10 02:30N 47°60' W 004°39'0 0.4
2018-Jan-10 01:56N 47°60' W 004°39'2 3.8
2018-Jan-10 01:30N 47°60' W 004°37'1 1.3
2018-Jan-10 00:57N 47°60' W 004°38'9 8.8
2018-Jan-09 23:54N 47°55' W 004°25'4 8.9
2018-Jan-09 23:26N 47°51' W 004°24'2 1.5
2018-Jan-09 21:48N 47°49' W 004°23'1 0.1
2018-Jan-09 00:48N 47°49' W 004°25'1010.1
2018-Jan-08 23:51N 47°57' W 004°33'410.2
2018-Jan-08 23:30N 47°59' W 004°37'1 2.2
2018-Jan-08 23:00N 47°60' W 004°39'0 0.5
2018-Jan-08 22:31N 47°60' W 004°38'0 0.4
2018-Jan-08 22:00N 47°60' W 004°38'0 0.5
2018-Jan-08 21:29N 47°60' W 004°39'4 9.0
2018-Jan-08 21:00N 47°58' W 004°45'5 9.8
2018-Jan-08 20:30N 47°59' W 004°52'5 9.6
2018-Jan-08 19:57N 47°60' W 004°60'1 3.1
2018-Jan-08 19:30N 47°59' W 005°02'1 1.9
2018-Jan-08 19:00N 47°58' W 005°01'2 4.6
2018-Jan-08 18:30N 48°00' W 004°59'4 8.1
2018-Jan-08 18:00N 48°01' W 004°53'5 9.3
2018-Jan-08 17:30N 47°58' W 004°48'4 8.6
2018-Jan-08 17:00N 47°60' W 004°42'17 7.6
2018-Jan-08 14:48N 47°49' W 004°23'0 0.0
2018-Jan-08 09:58N 47°49' W 004°23'  

Dump ship's entire track history